sensor_id;sensor_type;location;lat;lon;timestamp;P1;durP1;ratioP1;P2;durP2;ratioP2
55545;SDS011;44768;50.298;127.520;2022-10-16T00:04:29;49.47;;;3.67;;
55545;SDS011;44768;50.298;127.520;2022-10-16T00:09:30;21.60;;;2.97;;
55545;SDS011;44768;50.298;127.520;2022-10-16T00:14:31;32.50;;;3.00;;
55545;SDS011;44768;50.298;127.520;2022-10-16T00:19:32;17.17;;;2.73;;
55545;SDS011;44768;50.298;127.520;2022-10-16T00:24:33;19.00;;;2.43;;
55545;SDS011;44768;50.298;127.520;2022-10-16T00:29:35;19.35;;;2.67;;
55545;SDS011;44768;50.298;127.520;2022-10-16T00:34:37;16.80;;;1.98;;
55545;SDS011;44768;50.298;127.520;2022-10-16T00:39:38;18.37;;;3.03;;
55545;SDS011;44768;50.298;127.520;2022-10-16T00:44:50;17.27;;;1.73;;
55545;SDS011;44768;50.298;127.520;2022-10-16T00:49:56;9.63;;;1.98;;
55545;SDS011;44768;50.298;127.520;2022-10-16T00:54:59;10.18;;;1.75;;
55545;SDS011;44768;50.298;127.520;2022-10-16T01:00:03;79.07;;;2.97;;
55545;SDS011;44768;50.298;127.520;2022-10-16T01:05:05;23.52;;;2.28;;
55545;SDS011;44768;50.298;127.520;2022-10-16T01:20:32;19.80;;;3.10;;
55545;SDS011;44768;50.298;127.520;2022-10-16T01:30:49;30.50;;;1.95;;
55545;SDS011;44768;50.298;127.520;2022-10-16T01:35:55;24.25;;;2.22;;
55545;SDS011;44768;50.298;127.520;2022-10-16T01:40:59;11.52;;;1.35;;
55545;SDS011;44768;50.298;127.520;2022-10-16T01:46:01;16.35;;;1.90;;
55545;SDS011;44768;50.298;127.520;2022-10-16T01:51:05;27.38;;;3.25;;
55545;SDS011;44768;50.298;127.520;2022-10-16T01:56:08;52.65;;;4.30;;
55545;SDS011;44768;50.298;127.520;2022-10-16T02:01:11;9.57;;;1.27;;
55545;SDS011;44768;50.298;127.520;2022-10-16T02:06:13;3.67;;;1.10;;
55545;SDS011;44768;50.298;127.520;2022-10-16T02:11:14;71.10;;;27.67;;
55545;SDS011;44768;50.298;127.520;2022-10-16T02:16:16;15.67;;;4.80;;
55545;SDS011;44768;50.298;127.520;2022-10-16T02:21:19;3.90;;;1.20;;
55545;SDS011;44768;50.298;127.520;2022-10-16T02:26:28;21.20;;;2.05;;
55545;SDS011;44768;50.298;127.520;2022-10-16T02:31:32;26.33;;;2.92;;
55545;SDS011;44768;50.298;127.520;2022-10-16T02:36:35;5.60;;;1.48;;
55545;SDS011;44768;50.298;127.520;2022-10-16T02:41:37;15.30;;;1.58;;
55545;SDS011;44768;50.298;127.520;2022-10-16T02:46:38;6.55;;;1.58;;
55545;SDS011;44768;50.298;127.520;2022-10-16T02:51:39;4.03;;;1.07;;
55545;SDS011;44768;50.298;127.520;2022-10-16T02:56:41;7.90;;;1.27;;
55545;SDS011;44768;50.298;127.520;2022-10-16T03:06:43;17.90;;;1.83;;
55545;SDS011;44768;50.298;127.520;2022-10-16T03:11:44;4.20;;;1.67;;
55545;SDS011;44768;50.298;127.520;2022-10-16T03:16:45;13.30;;;1.73;;
55545;SDS011;44768;50.298;127.520;2022-10-16T03:21:46;7.93;;;1.47;;
55545;SDS011;44768;50.298;127.520;2022-10-16T03:26:48;3.73;;;1.10;;
55545;SDS011;44768;50.298;127.520;2022-10-16T03:31:58;3.45;;;1.23;;
55545;SDS011;44768;50.298;127.520;2022-10-16T03:37:03;219.70;;;10.68;;
55545;SDS011;44768;50.298;127.520;2022-10-16T03:42:29;140.32;;;7.15;;
55545;SDS011;44768;50.298;127.520;2022-10-16T03:47:36;12.23;;;1.42;;
55545;SDS011;44768;50.298;127.520;2022-10-16T03:52:39;10.45;;;1.17;;
55545;SDS011;44768;50.298;127.520;2022-10-16T03:57:41;6.90;;;1.50;;
55545;SDS011;44768;50.298;127.520;2022-10-16T04:02:43;5.63;;;1.33;;
55545;SDS011;44768;50.298;127.520;2022-10-16T04:07:44;22.02;;;1.45;;
55545;SDS011;44768;50.298;127.520;2022-10-16T04:12:45;16.43;;;1.47;;
55545;SDS011;44768;50.298;127.520;2022-10-16T04:17:46;4.93;;;0.97;;
55545;SDS011;44768;50.298;127.520;2022-10-16T04:22:48;43.77;;;2.47;;
55545;SDS011;44768;50.298;127.520;2022-10-16T04:27:49;18.47;;;1.60;;
55545;SDS011;44768;50.298;127.520;2022-10-16T04:32:51;11.60;;;1.27;;
55545;SDS011;44768;50.298;127.520;2022-10-16T04:37:53;15.75;;;1.58;;
55545;SDS011;44768;50.298;127.520;2022-10-16T04:42:54;45.17;;;2.73;;
55545;SDS011;44768;50.298;127.520;2022-10-16T04:47:58;9.73;;;1.27;;
55545;SDS011;44768;50.298;127.520;2022-10-16T04:53:00;15.15;;;1.38;;
55545;SDS011;44768;50.298;127.520;2022-10-16T04:58:01;9.55;;;1.40;;
55545;SDS011;44768;50.298;127.520;2022-10-16T05:03:03;4.00;;;0.93;;
55545;SDS011;44768;50.298;127.520;2022-10-16T05:08:07;13.00;;;1.90;;
55545;SDS011;44768;50.298;127.520;2022-10-16T05:13:09;48.47;;;3.40;;
55545;SDS011;44768;50.298;127.520;2022-10-16T05:18:10;8.63;;;0.90;;
55545;SDS011;44768;50.298;127.520;2022-10-16T05:23:11;8.77;;;1.10;;
55545;SDS011;44768;50.298;127.520;2022-10-16T05:28:12;57.07;;;3.97;;
55545;SDS011;44768;50.298;127.520;2022-10-16T05:33:14;4.28;;;1.00;;
55545;SDS011;44768;50.298;127.520;2022-10-16T05:38:16;18.75;;;1.60;;
55545;SDS011;44768;50.298;127.520;2022-10-16T05:43:18;23.30;;;1.70;;
55545;SDS011;44768;50.298;127.520;2022-10-16T05:48:29;6.30;;;1.00;;
55545;SDS011;44768;50.298;127.520;2022-10-16T05:53:36;20.40;;;2.25;;
55545;SDS011;44768;50.298;127.520;2022-10-16T05:58:37;15.45;;;1.60;;
55545;SDS011;44768;50.298;127.520;2022-10-16T06:03:44;30.65;;;2.72;;
55545;SDS011;44768;50.298;127.520;2022-10-16T06:08:46;30.40;;;2.30;;
55545;SDS011;44768;50.298;127.520;2022-10-16T06:18:55;14.30;;;1.73;;
55545;SDS011;44768;50.298;127.520;2022-10-16T06:24:00;117.70;;;5.22;;
55545;SDS011;44768;50.298;127.520;2022-10-16T06:29:04;12.18;;;1.70;;
55545;SDS011;44768;50.298;127.520;2022-10-16T06:34:21;3.40;;;0.98;;
55545;SDS011;44768;50.298;127.520;2022-10-16T06:39:23;50.50;;;2.00;;
55545;SDS011;44768;50.298;127.520;2022-10-16T06:50:08;26.50;;;2.03;;
55545;SDS011;44768;50.298;127.520;2022-10-16T06:55:10;8.10;;;1.50;;
55545;SDS011;44768;50.298;127.520;2022-10-16T07:00:18;15.85;;;1.80;;
55545;SDS011;44768;50.298;127.520;2022-10-16T07:05:40;19.77;;;1.98;;
55545;SDS011;44768;50.298;127.520;2022-10-16T07:10:42;10.32;;;1.85;;
55545;SDS011;44768;50.298;127.520;2022-10-16T07:15:43;12.80;;;1.77;;
55545;SDS011;44768;50.298;127.520;2022-10-16T07:20:45;17.63;;;1.30;;
55545;SDS011;44768;50.298;127.520;2022-10-16T07:25:46;3.30;;;1.30;;
55545;SDS011;44768;50.298;127.520;2022-10-16T07:31:15;8.52;;;1.48;;
55545;SDS011;44768;50.298;127.520;2022-10-16T07:36:16;7.65;;;1.48;;
55545;SDS011;44768;50.298;127.520;2022-10-16T07:41:18;13.75;;;1.55;;
55545;SDS011;44768;50.298;127.520;2022-10-16T07:46:20;14.27;;;2.20;;
55545;SDS011;44768;50.298;127.520;2022-10-16T07:56:23;15.07;;;1.30;;
55545;SDS011;44768;50.298;127.520;2022-10-16T08:06:26;32.83;;;2.85;;
55545;SDS011;44768;50.298;127.520;2022-10-16T08:11:27;29.15;;;3.80;;
55545;SDS011;44768;50.298;127.520;2022-10-16T08:16:28;43.67;;;3.90;;
55545;SDS011;44768;50.298;127.520;2022-10-16T08:21:29;21.77;;;3.27;;
55545;SDS011;44768;50.298;127.520;2022-10-16T08:26:30;33.83;;;3.77;;
55545;SDS011;44768;50.298;127.520;2022-10-16T08:31:32;16.57;;;3.17;;
55545;SDS011;44768;50.298;127.520;2022-10-16T08:36:33;40.43;;;4.80;;
55545;SDS011;44768;50.298;127.520;2022-10-16T08:46:43;62.70;;;8.85;;
55545;SDS011;44768;50.298;127.520;2022-10-16T08:51:46;58.25;;;12.07;;
55545;SDS011;44768;50.298;127.520;2022-10-16T08:56:50;33.47;;;5.25;;
55545;SDS011;44768;50.298;127.520;2022-10-16T09:01:51;19.48;;;4.82;;
55545;SDS011;44768;50.298;127.520;2022-10-16T09:12:20;26.90;;;3.63;;
55545;SDS011;44768;50.298;127.520;2022-10-16T09:22:28;31.75;;;7.90;;
55545;SDS011;44768;50.298;127.520;2022-10-16T09:27:30;32.30;;;20.40;;
55545;SDS011;44768;50.298;127.520;2022-10-16T09:32:31;67.85;;;41.72;;
55545;SDS011;44768;50.298;127.520;2022-10-16T09:37:34;78.90;;;49.45;;
55545;SDS011;44768;50.298;127.520;2022-10-16T09:42:36;101.45;;;64.45;;
55545;SDS011;44768;50.298;127.520;2022-10-16T09:47:39;101.60;;;66.75;;
55545;SDS011;44768;50.298;127.520;2022-10-16T09:52:43;85.47;;;57.85;;
55545;SDS011;44768;50.298;127.520;2022-10-16T10:02:52;90.07;;;57.90;;
55545;SDS011;44768;50.298;127.520;2022-10-16T10:12:56;85.95;;;55.22;;
55545;SDS011;44768;50.298;127.520;2022-10-16T10:17:57;77.07;;;49.97;;
55545;SDS011;44768;50.298;127.520;2022-10-16T10:22:59;69.07;;;42.83;;
55545;SDS011;44768;50.298;127.520;2022-10-16T10:28:10;53.47;;;34.80;;
55545;SDS011;44768;50.298;127.520;2022-10-16T10:38:39;69.90;;;41.50;;
55545;SDS011;44768;50.298;127.520;2022-10-16T10:54:26;62.88;;;37.88;;
55545;SDS011;44768;50.298;127.520;2022-10-16T10:59:40;70.07;;;41.03;;
55545;SDS011;44768;50.298;127.520;2022-10-16T11:09:53;70.53;;;40.77;;
55545;SDS011;44768;50.298;127.520;2022-10-16T11:20:10;55.90;;;33.85;;
55545;SDS011;44768;50.298;127.520;2022-10-16T11:25:15;61.38;;;33.55;;
55545;SDS011;44768;50.298;127.520;2022-10-16T11:30:20;53.47;;;30.70;;
55545;SDS011;44768;50.298;127.520;2022-10-16T11:35:32;50.67;;;29.40;;
55545;SDS011;44768;50.298;127.520;2022-10-16T11:40:38;53.10;;;28.55;;
55545;SDS011;44768;50.298;127.520;2022-10-16T11:45:42;72.97;;;30.27;;
55545;SDS011;44768;50.298;127.520;2022-10-16T11:50:50;73.25;;;30.27;;
55545;SDS011;44768;50.298;127.520;2022-10-16T11:55:52;61.40;;;28.70;;
55545;SDS011;44768;50.298;127.520;2022-10-16T12:01:13;68.30;;;29.97;;
55545;SDS011;44768;50.298;127.520;2022-10-16T12:06:23;66.90;;;28.98;;
55545;SDS011;44768;50.298;127.520;2022-10-16T12:11:39;55.72;;;27.20;;
55545;SDS011;44768;50.298;127.520;2022-10-16T12:16:59;50.35;;;24.75;;
55545;SDS011;44768;50.298;127.520;2022-10-16T12:22:01;45.15;;;25.33;;
55545;SDS011;44768;50.298;127.520;2022-10-16T12:27:05;49.28;;;28.52;;
55545;SDS011;44768;50.298;127.520;2022-10-16T12:32:24;53.90;;;29.75;;
55545;SDS011;44768;50.298;127.520;2022-10-16T12:37:34;50.95;;;28.05;;
55545;SDS011;44768;50.298;127.520;2022-10-16T12:42:36;53.70;;;31.00;;
55545;SDS011;44768;50.298;127.520;2022-10-16T12:47:38;65.67;;;27.97;;
55545;SDS011;44768;50.298;127.520;2022-10-16T12:52:48;43.97;;;23.75;;
55545;SDS011;44768;50.298;127.520;2022-10-16T12:57:57;36.53;;;22.23;;
55545;SDS011;44768;50.298;127.520;2022-10-16T13:29:02;21.67;;;16.20;;
55545;SDS011;44768;50.298;127.520;2022-10-16T13:34:04;24.23;;;16.60;;
55545;SDS011;44768;50.298;127.520;2022-10-16T13:44:15;22.88;;;15.40;;
55545;SDS011;44768;50.298;127.520;2022-10-16T13:49:18;19.03;;;12.37;;
55545;SDS011;44768;50.298;127.520;2022-10-16T13:54:21;18.20;;;13.35;;
55545;SDS011;44768;50.298;127.520;2022-10-16T13:59:36;18.10;;;12.13;;
55545;SDS011;44768;50.298;127.520;2022-10-16T14:04:39;15.45;;;10.75;;
55545;SDS011;44768;50.298;127.520;2022-10-16T14:09:40;14.03;;;11.17;;
55545;SDS011;44768;50.298;127.520;2022-10-16T14:14:49;12.50;;;9.23;;
55545;SDS011;44768;50.298;127.520;2022-10-16T14:19:52;10.98;;;8.55;;
55545;SDS011;44768;50.298;127.520;2022-10-16T14:24:55;12.02;;;7.43;;
55545;SDS011;44768;50.298;127.520;2022-10-16T14:30:08;8.50;;;6.00;;
55545;SDS011;44768;50.298;127.520;2022-10-16T14:40:46;3.85;;;2.90;;
55545;SDS011;44768;50.298;127.520;2022-10-16T14:45:55;2.72;;;2.50;;
55545;SDS011;44768;50.298;127.520;2022-10-16T14:50:57;4.10;;;2.33;;
55545;SDS011;44768;50.298;127.520;2022-10-16T14:56:05;2.17;;;1.83;;
55545;SDS011;44768;50.298;127.520;2022-10-16T15:01:07;2.40;;;2.05;;
55545;SDS011;44768;50.298;127.520;2022-10-16T15:06:12;1.58;;;1.40;;
55545;SDS011;44768;50.298;127.520;2022-10-16T15:11:15;1.73;;;1.63;;
55545;SDS011;44768;50.298;127.520;2022-10-16T15:16:17;1.67;;;1.55;;
55545;SDS011;44768;50.298;127.520;2022-10-16T15:21:26;4.43;;;1.60;;
55545;SDS011;44768;50.298;127.520;2022-10-16T15:26:28;1.50;;;1.40;;
55545;SDS011;44768;50.298;127.520;2022-10-16T15:31:29;3.90;;;1.60;;
55545;SDS011;44768;50.298;127.520;2022-10-16T15:36:32;1.77;;;1.67;;
55545;SDS011;44768;50.298;127.520;2022-10-16T15:41:35;2.13;;;1.90;;
55545;SDS011;44768;50.298;127.520;2022-10-16T15:46:36;2.20;;;2.00;;
55545;SDS011;44768;50.298;127.520;2022-10-16T15:51:39;1.70;;;1.60;;
55545;SDS011;44768;50.298;127.520;2022-10-16T15:56:41;1.70;;;1.60;;
55545;SDS011;44768;50.298;127.520;2022-10-16T16:01:42;2.20;;;1.70;;
55545;SDS011;44768;50.298;127.520;2022-10-16T16:06:43;2.27;;;1.83;;
55545;SDS011;44768;50.298;127.520;2022-10-16T16:11:47;6.28;;;2.50;;
55545;SDS011;44768;50.298;127.520;2022-10-16T16:16:48;2.97;;;1.80;;
55545;SDS011;44768;50.298;127.520;2022-10-16T16:21:50;2.60;;;1.73;;
55545;SDS011;44768;50.298;127.520;2022-10-16T16:26:51;1.92;;;1.52;;
55545;SDS011;44768;50.298;127.520;2022-10-16T16:31:52;1.97;;;1.60;;
55545;SDS011;44768;50.298;127.520;2022-10-16T16:36:57;1.50;;;1.40;;
55545;SDS011;44768;50.298;127.520;2022-10-16T16:41:59;1.90;;;1.30;;
55545;SDS011;44768;50.298;127.520;2022-10-16T16:47:00;4.97;;;1.15;;
55545;SDS011;44768;50.298;127.520;2022-10-16T16:52:01;0.90;;;0.90;;
55545;SDS011;44768;50.298;127.520;2022-10-16T16:57:02;1.67;;;1.00;;
55545;SDS011;44768;50.298;127.520;2022-10-16T17:02:05;0.90;;;0.90;;
55545;SDS011;44768;50.298;127.520;2022-10-16T17:07:06;1.23;;;0.90;;
55545;SDS011;44768;50.298;127.520;2022-10-16T17:12:07;0.80;;;0.70;;
55545;SDS011;44768;50.298;127.520;2022-10-16T17:17:08;0.60;;;0.60;;
55545;SDS011;44768;50.298;127.520;2022-10-16T17:22:10;0.70;;;0.70;;
55545;SDS011;44768;50.298;127.520;2022-10-16T17:27:11;0.70;;;0.70;;
55545;SDS011;44768;50.298;127.520;2022-10-16T17:32:12;2.53;;;0.80;;
55545;SDS011;44768;50.298;127.520;2022-10-16T17:37:13;0.60;;;0.60;;
55545;SDS011;44768;50.298;127.520;2022-10-16T17:42:14;0.80;;;0.80;;
55545;SDS011;44768;50.298;127.520;2022-10-16T17:47:16;0.70;;;0.70;;
55545;SDS011;44768;50.298;127.520;2022-10-16T17:52:17;0.70;;;0.70;;
55545;SDS011;44768;50.298;127.520;2022-10-16T17:57:18;0.80;;;0.80;;
55545;SDS011;44768;50.298;127.520;2022-10-16T18:02:20;0.90;;;0.90;;
55545;SDS011;44768;50.298;127.520;2022-10-16T18:07:21;1.10;;;0.93;;
55545;SDS011;44768;50.298;127.520;2022-10-16T18:12:22;2.70;;;0.80;;
55545;SDS011;44768;50.298;127.520;2022-10-16T18:17:24;1.37;;;1.10;;
55545;SDS011;44768;50.298;127.520;2022-10-16T18:22:25;1.35;;;1.25;;
55545;SDS011;44768;50.298;127.520;2022-10-16T18:27:27;1.20;;;1.10;;
55545;SDS011;44768;50.298;127.520;2022-10-16T18:32:28;0.80;;;0.80;;
55545;SDS011;44768;50.298;127.520;2022-10-16T18:37:29;1.00;;;1.00;;
55545;SDS011;44768;50.298;127.520;2022-10-16T18:42:30;0.80;;;0.80;;
55545;SDS011;44768;50.298;127.520;2022-10-16T18:47:32;2.38;;;0.77;;
55545;SDS011;44768;50.298;127.520;2022-10-16T18:52:33;0.93;;;0.93;;
55545;SDS011;44768;50.298;127.520;2022-10-16T18:57:34;0.93;;;0.87;;
55545;SDS011;44768;50.298;127.520;2022-10-16T19:02:36;5.15;;;1.05;;
55545;SDS011;44768;50.298;127.520;2022-10-16T19:07:37;1.30;;;1.10;;
55545;SDS011;44768;50.298;127.520;2022-10-16T19:12:38;1.20;;;1.10;;
55545;SDS011;44768;50.298;127.520;2022-10-16T19:17:41;1.52;;;1.13;;
55545;SDS011;44768;50.298;127.520;2022-10-16T19:22:42;1.00;;;1.00;;
55545;SDS011;44768;50.298;127.520;2022-10-16T19:27:58;3.40;;;0.82;;
55545;SDS011;44768;50.298;127.520;2022-10-16T19:33:01;0.80;;;0.80;;
55545;SDS011;44768;50.298;127.520;2022-10-16T19:38:02;0.90;;;0.70;;
55545;SDS011;44768;50.298;127.520;2022-10-16T19:43:03;1.03;;;0.83;;
55545;SDS011;44768;50.298;127.520;2022-10-16T19:48:04;1.10;;;1.00;;
55545;SDS011;44768;50.298;127.520;2022-10-16T19:53:05;1.10;;;1.00;;
55545;SDS011;44768;50.298;127.520;2022-10-16T19:58:07;1.77;;;1.10;;
55545;SDS011;44768;50.298;127.520;2022-10-16T20:03:08;1.10;;;0.80;;
55545;SDS011;44768;50.298;127.520;2022-10-16T20:08:10;2.47;;;0.87;;
55545;SDS011;44768;50.298;127.520;2022-10-16T20:13:11;1.13;;;0.93;;
55545;SDS011;44768;50.298;127.520;2022-10-16T20:18:14;1.42;;;1.10;;
55545;SDS011;44768;50.298;127.520;2022-10-16T20:23:16;2.53;;;0.90;;
55545;SDS011;44768;50.298;127.520;2022-10-16T20:28:19;1.05;;;0.80;;
55545;SDS011;44768;50.298;127.520;2022-10-16T20:33:20;1.13;;;1.00;;
55545;SDS011;44768;50.298;127.520;2022-10-16T20:38:21;1.93;;;0.90;;
55545;SDS011;44768;50.298;127.520;2022-10-16T20:43:22;2.73;;;1.00;;
55545;SDS011;44768;50.298;127.520;2022-10-16T20:48:24;0.63;;;0.60;;
55545;SDS011;44768;50.298;127.520;2022-10-16T20:53:25;0.73;;;0.73;;
55545;SDS011;44768;50.298;127.520;2022-10-16T20:58:26;0.80;;;0.80;;
55545;SDS011;44768;50.298;127.520;2022-10-16T21:03:27;0.60;;;0.60;;
55545;SDS011;44768;50.298;127.520;2022-10-16T21:08:29;0.68;;;0.68;;
55545;SDS011;44768;50.298;127.520;2022-10-16T21:13:30;0.70;;;0.70;;
55545;SDS011;44768;50.298;127.520;2022-10-16T21:18:32;2.47;;;0.70;;
55545;SDS011;44768;50.298;127.520;2022-10-16T21:23:34;0.90;;;0.80;;
55545;SDS011;44768;50.298;127.520;2022-10-16T21:28:35;3.83;;;0.80;;
55545;SDS011;44768;50.298;127.520;2022-10-16T21:33:36;1.13;;;0.60;;
55545;SDS011;44768;50.298;127.520;2022-10-16T21:38:37;4.80;;;0.73;;
55545;SDS011;44768;50.298;127.520;2022-10-16T21:43:38;0.50;;;0.50;;
55545;SDS011;44768;50.298;127.520;2022-10-16T21:48:39;1.27;;;0.80;;
55545;SDS011;44768;50.298;127.520;2022-10-16T21:53:42;0.80;;;0.80;;
55545;SDS011;44768;50.298;127.520;2022-10-16T21:58:44;2.53;;;0.70;;
55545;SDS011;44768;50.298;127.520;2022-10-16T22:03:45;0.70;;;0.70;;
55545;SDS011;44768;50.298;127.520;2022-10-16T22:08:47;1.30;;;0.80;;
55545;SDS011;44768;50.298;127.520;2022-10-16T22:13:49;1.95;;;0.95;;
55545;SDS011;44768;50.298;127.520;2022-10-16T22:18:51;1.52;;;0.82;;
55545;SDS011;44768;50.298;127.520;2022-10-16T22:23:53;0.93;;;0.70;;
55545;SDS011;44768;50.298;127.520;2022-10-16T22:28:54;0.80;;;0.80;;
55545;SDS011;44768;50.298;127.520;2022-10-16T22:33:57;2.75;;;0.88;;
55545;SDS011;44768;50.298;127.520;2022-10-16T22:38:58;1.20;;;1.00;;
55545;SDS011;44768;50.298;127.520;2022-10-16T22:43:59;0.80;;;0.80;;
55545;SDS011;44768;50.298;127.520;2022-10-16T22:49:01;0.83;;;0.83;;
55545;SDS011;44768;50.298;127.520;2022-10-16T22:54:02;1.27;;;0.93;;
55545;SDS011;44768;50.298;127.520;2022-10-16T22:59:04;2.05;;;1.30;;
55545;SDS011;44768;50.298;127.520;2022-10-16T23:04:06;1.42;;;1.20;;
55545;SDS011;44768;50.298;127.520;2022-10-16T23:09:08;0.80;;;0.80;;
55545;SDS011;44768;50.298;127.520;2022-10-16T23:14:10;1.85;;;0.80;;
55545;SDS011;44768;50.298;127.520;2022-10-16T23:19:11;0.77;;;0.77;;
55545;SDS011;44768;50.298;127.520;2022-10-16T23:24:12;1.40;;;1.30;;
55545;SDS011;44768;50.298;127.520;2022-10-16T23:29:14;2.55;;;1.00;;
55545;SDS011;44768;50.298;127.520;2022-10-16T23:34:15;1.10;;;1.00;;
55545;SDS011;44768;50.298;127.520;2022-10-16T23:39:16;2.33;;;1.20;;
55545;SDS011;44768;50.298;127.520;2022-10-16T23:44:17;3.60;;;0.80;;
55545;SDS011;44768;50.298;127.520;2022-10-16T23:49:18;1.80;;;1.13;;
55545;SDS011;44768;50.298;127.520;2022-10-16T23:54:20;1.57;;;1.00;;
55545;SDS011;44768;50.298;127.520;2022-10-16T23:59:22;4.53;;;0.80;;
